sensor_id;sensor_type;location;lat;lon;timestamp;P1;durP1;ratioP1;P2;durP2;ratioP2
68074;SDS011;54864;52.002;5.468;2023-06-22T00:00:34;11.70;;;6.60;;
68074;SDS011;54864;52.002;5.468;2023-06-22T00:01:36;10.65;;;7.88;;
68074;SDS011;54864;52.002;5.468;2023-06-22T00:02:37;7.93;;;7.10;;
68074;SDS011;54864;52.002;5.468;2023-06-22T00:03:38;9.45;;;6.95;;
68074;SDS011;54864;52.002;5.468;2023-06-22T00:04:39;7.55;;;6.75;;
68074;SDS011;54864;52.002;5.468;2023-06-22T00:05:41;9.48;;;6.47;;
68074;SDS011;54864;52.002;5.468;2023-06-22T00:06:42;10.88;;;6.68;;
68074;SDS011;54864;52.002;5.468;2023-06-22T00:07:50;10.35;;;6.85;;
68074;SDS011;54864;52.002;5.468;2023-06-22T00:08:50;6.82;;;6.10;;
68074;SDS011;54864;52.002;5.468;2023-06-22T00:09:52;8.43;;;5.95;;
68074;SDS011;54864;52.002;5.468;2023-06-22T00:10:53;9.00;;;6.70;;
68074;SDS011;54864;52.002;5.468;2023-06-22T00:11:55;10.75;;;6.45;;
68074;SDS011;54864;52.002;5.468;2023-06-22T00:12:56;9.85;;;6.47;;
68074;SDS011;54864;52.002;5.468;2023-06-22T00:13:59;8.90;;;7.43;;
68074;SDS011;54864;52.002;5.468;2023-06-22T00:15:00;7.90;;;6.93;;
68074;SDS011;54864;52.002;5.468;2023-06-22T00:16:02;10.30;;;7.13;;
68074;SDS011;54864;52.002;5.468;2023-06-22T00:17:04;10.70;;;8.13;;
68074;SDS011;54864;52.002;5.468;2023-06-22T00:18:05;10.83;;;7.57;;
68074;SDS011;54864;52.002;5.468;2023-06-22T00:19:07;8.23;;;7.30;;
68074;SDS011;54864;52.002;5.468;2023-06-22T00:20:11;9.13;;;6.68;;
68074;SDS011;54864;52.002;5.468;2023-06-22T00:21:14;8.68;;;6.68;;
68074;SDS011;54864;52.002;5.468;2023-06-22T00:22:14;8.13;;;6.25;;
68074;SDS011;54864;52.002;5.468;2023-06-22T00:23:17;9.20;;;7.07;;
68074;SDS011;54864;52.002;5.468;2023-06-22T00:24:18;10.55;;;6.90;;
68074;SDS011;54864;52.002;5.468;2023-06-22T00:25:20;9.80;;;6.82;;
68074;SDS011;54864;52.002;5.468;2023-06-22T00:26:21;10.27;;;6.60;;
68074;SDS011;54864;52.002;5.468;2023-06-22T00:27:22;8.13;;;6.65;;
68074;SDS011;54864;52.002;5.468;2023-06-22T00:28:23;10.55;;;7.03;;
68074;SDS011;54864;52.002;5.468;2023-06-22T00:29:26;11.65;;;7.28;;
68074;SDS011;54864;52.002;5.468;2023-06-22T00:30:27;7.55;;;6.43;;
68074;SDS011;54864;52.002;5.468;2023-06-22T00:31:29;10.93;;;7.45;;
68074;SDS011;54864;52.002;5.468;2023-06-22T00:32:30;12.50;;;7.60;;
68074;SDS011;54864;52.002;5.468;2023-06-22T00:33:31;9.13;;;6.38;;
68074;SDS011;54864;52.002;5.468;2023-06-22T00:34:33;9.20;;;6.72;;
68074;SDS011;54864;52.002;5.468;2023-06-22T00:35:34;11.68;;;7.32;;
68074;SDS011;54864;52.002;5.468;2023-06-22T00:36:35;10.23;;;7.28;;
68074;SDS011;54864;52.002;5.468;2023-06-22T00:37:36;8.75;;;6.90;;
68074;SDS011;54864;52.002;5.468;2023-06-22T00:38:40;10.57;;;7.00;;
68074;SDS011;54864;52.002;5.468;2023-06-22T00:39:42;10.35;;;6.65;;
68074;SDS011;54864;52.002;5.468;2023-06-22T00:40:53;9.32;;;7.10;;
68074;SDS011;54864;52.002;5.468;2023-06-22T00:41:55;9.02;;;7.13;;
68074;SDS011;54864;52.002;5.468;2023-06-22T00:42:56;8.70;;;6.55;;
68074;SDS011;54864;52.002;5.468;2023-06-22T00:43:58;10.40;;;6.85;;
68074;SDS011;54864;52.002;5.468;2023-06-22T00:45:00;10.47;;;6.83;;
68074;SDS011;54864;52.002;5.468;2023-06-22T00:46:02;8.00;;;6.90;;
68074;SDS011;54864;52.002;5.468;2023-06-22T00:47:03;10.13;;;6.70;;
68074;SDS011;54864;52.002;5.468;2023-06-22T00:48:06;9.23;;;6.80;;
68074;SDS011;54864;52.002;5.468;2023-06-22T00:49:08;11.00;;;6.35;;
68074;SDS011;54864;52.002;5.468;2023-06-22T00:50:11;9.55;;;6.95;;
68074;SDS011;54864;52.002;5.468;2023-06-22T00:51:18;9.90;;;7.30;;
68074;SDS011;54864;52.002;5.468;2023-06-22T00:52:24;9.18;;;7.47;;
68074;SDS011;54864;52.002;5.468;2023-06-22T00:53:29;9.75;;;7.35;;
68074;SDS011;54864;52.002;5.468;2023-06-22T00:54:35;12.85;;;7.60;;
68074;SDS011;54864;52.002;5.468;2023-06-22T00:55:36;10.35;;;7.57;;
68074;SDS011;54864;52.002;5.468;2023-06-22T00:56:39;12.40;;;7.77;;
68074;SDS011;54864;52.002;5.468;2023-06-22T00:57:41;10.65;;;7.55;;
68074;SDS011;54864;52.002;5.468;2023-06-22T00:58:55;9.43;;;7.40;;
68074;SDS011;54864;52.002;5.468;2023-06-22T00:59:57;9.93;;;7.13;;
68074;SDS011;54864;52.002;5.468;2023-06-22T01:00:59;8.67;;;7.30;;
68074;SDS011;54864;52.002;5.468;2023-06-22T01:02:02;9.25;;;7.18;;
68074;SDS011;54864;52.002;5.468;2023-06-22T01:03:03;9.27;;;7.00;;
68074;SDS011;54864;52.002;5.468;2023-06-22T01:04:08;9.95;;;7.88;;
68074;SDS011;54864;52.002;5.468;2023-06-22T01:05:10;11.73;;;7.32;;
68074;SDS011;54864;52.002;5.468;2023-06-22T01:06:14;7.70;;;6.75;;
68074;SDS011;54864;52.002;5.468;2023-06-22T01:07:20;11.15;;;6.75;;
68074;SDS011;54864;52.002;5.468;2023-06-22T01:08:29;10.50;;;7.80;;
68074;SDS011;54864;52.002;5.468;2023-06-22T01:09:41;9.70;;;7.00;;
68074;SDS011;54864;52.002;5.468;2023-06-22T01:10:53;11.07;;;7.88;;
68074;SDS011;54864;52.002;5.468;2023-06-22T01:12:00;11.25;;;7.43;;
68074;SDS011;54864;52.002;5.468;2023-06-22T01:13:04;11.70;;;7.85;;
68074;SDS011;54864;52.002;5.468;2023-06-22T01:14:12;11.75;;;8.27;;
68074;SDS011;54864;52.002;5.468;2023-06-22T01:15:21;12.38;;;7.43;;
68074;SDS011;54864;52.002;5.468;2023-06-22T01:16:30;9.57;;;7.15;;
68074;SDS011;54864;52.002;5.468;2023-06-22T01:17:33;11.32;;;7.88;;
68074;SDS011;54864;52.002;5.468;2023-06-22T01:18:35;10.15;;;7.78;;
68074;SDS011;54864;52.002;5.468;2023-06-22T01:19:43;13.00;;;7.78;;
68074;SDS011;54864;52.002;5.468;2023-06-22T01:20:49;12.27;;;8.63;;
68074;SDS011;54864;52.002;5.468;2023-06-22T01:21:52;11.93;;;8.93;;
68074;SDS011;54864;52.002;5.468;2023-06-22T01:23:01;11.85;;;9.70;;
68074;SDS011;54864;52.002;5.468;2023-06-22T01:24:11;11.27;;;9.00;;
68074;SDS011;54864;52.002;5.468;2023-06-22T01:25:19;12.50;;;8.67;;
68074;SDS011;54864;52.002;5.468;2023-06-22T01:26:25;13.23;;;9.93;;
68074;SDS011;54864;52.002;5.468;2023-06-22T01:27:39;15.90;;;9.95;;
68074;SDS011;54864;52.002;5.468;2023-06-22T01:28:53;13.38;;;8.60;;
68074;SDS011;54864;52.002;5.468;2023-06-22T01:29:57;11.60;;;9.30;;
68074;SDS011;54864;52.002;5.468;2023-06-22T01:31:00;13.02;;;9.95;;
68074;SDS011;54864;52.002;5.468;2023-06-22T01:32:06;11.35;;;9.30;;
68074;SDS011;54864;52.002;5.468;2023-06-22T01:33:08;12.93;;;10.13;;
68074;SDS011;54864;52.002;5.468;2023-06-22T01:34:11;12.13;;;9.93;;
68074;SDS011;54864;52.002;5.468;2023-06-22T01:35:14;14.10;;;9.65;;
68074;SDS011;54864;52.002;5.468;2023-06-22T01:36:17;11.60;;;9.18;;
68074;SDS011;54864;52.002;5.468;2023-06-22T01:37:19;13.43;;;10.10;;
68074;SDS011;54864;52.002;5.468;2023-06-22T01:38:21;11.27;;;9.43;;
68074;SDS011;54864;52.002;5.468;2023-06-22T01:39:22;10.80;;;9.48;;
68074;SDS011;54864;52.002;5.468;2023-06-22T01:40:25;12.00;;;9.65;;
68074;SDS011;54864;52.002;5.468;2023-06-22T01:41:27;13.80;;;10.68;;
68074;SDS011;54864;52.002;5.468;2023-06-22T01:42:31;13.70;;;10.32;;
68074;SDS011;54864;52.002;5.468;2023-06-22T01:43:32;13.50;;;10.70;;
68074;SDS011;54864;52.002;5.468;2023-06-22T01:44:36;15.73;;;11.00;;
68074;SDS011;54864;52.002;5.468;2023-06-22T01:45:38;13.73;;;11.57;;
68074;SDS011;54864;52.002;5.468;2023-06-22T01:46:40;17.38;;;11.43;;
68074;SDS011;54864;52.002;5.468;2023-06-22T01:47:41;16.65;;;11.48;;
68074;SDS011;54864;52.002;5.468;2023-06-22T01:48:55;16.67;;;11.32;;
68074;SDS011;54864;52.002;5.468;2023-06-22T01:49:56;15.30;;;11.20;;
68074;SDS011;54864;52.002;5.468;2023-06-22T01:50:58;15.45;;;11.13;;
68074;SDS011;54864;52.002;5.468;2023-06-22T01:51:59;16.05;;;12.18;;
68074;SDS011;54864;52.002;5.468;2023-06-22T01:53:01;14.80;;;11.48;;
68074;SDS011;54864;52.002;5.468;2023-06-22T01:54:02;14.00;;;11.00;;
68074;SDS011;54864;52.002;5.468;2023-06-22T01:55:04;14.13;;;10.93;;
68074;SDS011;54864;52.002;5.468;2023-06-22T01:56:06;14.13;;;10.82;;
68074;SDS011;54864;52.002;5.468;2023-06-22T01:57:08;13.80;;;10.45;;
68074;SDS011;54864;52.002;5.468;2023-06-22T01:58:10;11.48;;;10.27;;
68074;SDS011;54864;52.002;5.468;2023-06-22T01:59:14;14.48;;;11.43;;
68074;SDS011;54864;52.002;5.468;2023-06-22T02:00:23;13.52;;;10.65;;
68074;SDS011;54864;52.002;5.468;2023-06-22T02:01:31;13.93;;;11.10;;
68074;SDS011;54864;52.002;5.468;2023-06-22T02:02:36;13.50;;;10.30;;
68074;SDS011;54864;52.002;5.468;2023-06-22T02:03:57;13.25;;;10.45;;
68074;SDS011;54864;52.002;5.468;2023-06-22T02:05:06;11.77;;;9.93;;
68074;SDS011;54864;52.002;5.468;2023-06-22T02:06:11;13.52;;;10.20;;
68074;SDS011;54864;52.002;5.468;2023-06-22T02:07:18;15.15;;;10.70;;
68074;SDS011;54864;52.002;5.468;2023-06-22T02:08:23;14.25;;;10.55;;
68074;SDS011;54864;52.002;5.468;2023-06-22T02:09:29;13.27;;;10.43;;
68074;SDS011;54864;52.002;5.468;2023-06-22T02:10:32;14.50;;;10.55;;
68074;SDS011;54864;52.002;5.468;2023-06-22T02:11:35;12.77;;;9.82;;
68074;SDS011;54864;52.002;5.468;2023-06-22T02:12:38;11.73;;;10.32;;
68074;SDS011;54864;52.002;5.468;2023-06-22T02:13:41;11.57;;;10.10;;
68074;SDS011;54864;52.002;5.468;2023-06-22T02:14:49;13.83;;;10.37;;
68074;SDS011;54864;52.002;5.468;2023-06-22T02:15:54;13.90;;;9.88;;
68074;SDS011;54864;52.002;5.468;2023-06-22T02:16:55;13.13;;;10.75;;
68074;SDS011;54864;52.002;5.468;2023-06-22T02:17:59;15.32;;;10.48;;
68074;SDS011;54864;52.002;5.468;2023-06-22T02:19:01;14.75;;;10.52;;
68074;SDS011;54864;52.002;5.468;2023-06-22T02:20:04;14.20;;;10.73;;
68074;SDS011;54864;52.002;5.468;2023-06-22T02:21:07;14.20;;;10.20;;
68074;SDS011;54864;52.002;5.468;2023-06-22T02:22:09;13.68;;;9.73;;
68074;SDS011;54864;52.002;5.468;2023-06-22T02:23:10;15.15;;;10.35;;
68074;SDS011;54864;52.002;5.468;2023-06-22T02:24:12;12.65;;;9.77;;
68074;SDS011;54864;52.002;5.468;2023-06-22T02:25:13;15.68;;;10.45;;
68074;SDS011;54864;52.002;5.468;2023-06-22T02:26:16;12.57;;;9.97;;
68074;SDS011;54864;52.002;5.468;2023-06-22T02:27:17;15.93;;;11.00;;
68074;SDS011;54864;52.002;5.468;2023-06-22T02:28:19;12.52;;;9.93;;
68074;SDS011;54864;52.002;5.468;2023-06-22T02:29:20;13.57;;;10.20;;
68074;SDS011;54864;52.002;5.468;2023-06-22T02:30:22;15.13;;;10.48;;
68074;SDS011;54864;52.002;5.468;2023-06-22T02:31:24;13.70;;;11.23;;
68074;SDS011;54864;52.002;5.468;2023-06-22T02:32:30;14.95;;;10.27;;
68074;SDS011;54864;52.002;5.468;2023-06-22T02:33:34;12.93;;;10.52;;
68074;SDS011;54864;52.002;5.468;2023-06-22T02:34:36;12.70;;;10.30;;
68074;SDS011;54864;52.002;5.468;2023-06-22T02:35:37;13.35;;;10.07;;
68074;SDS011;54864;52.002;5.468;2023-06-22T02:36:39;13.05;;;10.48;;
68074;SDS011;54864;52.002;5.468;2023-06-22T02:37:40;15.27;;;10.87;;
68074;SDS011;54864;52.002;5.468;2023-06-22T02:38:43;13.05;;;10.73;;
68074;SDS011;54864;52.002;5.468;2023-06-22T02:39:48;15.88;;;11.35;;
68074;SDS011;54864;52.002;5.468;2023-06-22T02:40:50;12.95;;;10.73;;
68074;SDS011;54864;52.002;5.468;2023-06-22T02:41:51;13.77;;;10.82;;
68074;SDS011;54864;52.002;5.468;2023-06-22T02:42:55;13.77;;;11.30;;
68074;SDS011;54864;52.002;5.468;2023-06-22T02:43:58;14.80;;;11.27;;
68074;SDS011;54864;52.002;5.468;2023-06-22T02:44:59;14.55;;;10.90;;
68074;SDS011;54864;52.002;5.468;2023-06-22T02:46:00;17.73;;;11.18;;
68074;SDS011;54864;52.002;5.468;2023-06-22T02:47:04;16.25;;;10.70;;
68074;SDS011;54864;52.002;5.468;2023-06-22T02:48:05;13.38;;;11.02;;
68074;SDS011;54864;52.002;5.468;2023-06-22T02:49:07;14.13;;;11.52;;
68074;SDS011;54864;52.002;5.468;2023-06-22T02:50:08;17.13;;;11.65;;
68074;SDS011;54864;52.002;5.468;2023-06-22T02:51:10;13.27;;;10.40;;
68074;SDS011;54864;52.002;5.468;2023-06-22T02:52:11;13.07;;;11.30;;
68074;SDS011;54864;52.002;5.468;2023-06-22T02:53:13;13.60;;;10.63;;
68074;SDS011;54864;52.002;5.468;2023-06-22T02:54:13;13.53;;;10.43;;
68074;SDS011;54864;52.002;5.468;2023-06-22T02:55:16;13.23;;;10.93;;
68074;SDS011;54864;52.002;5.468;2023-06-22T02:56:17;13.75;;;10.63;;
68074;SDS011;54864;52.002;5.468;2023-06-22T02:57:24;13.18;;;10.68;;
68074;SDS011;54864;52.002;5.468;2023-06-22T02:58:25;17.05;;;10.98;;
68074;SDS011;54864;52.002;5.468;2023-06-22T02:59:27;12.52;;;10.80;;
68074;SDS011;54864;52.002;5.468;2023-06-22T03:00:28;15.38;;;11.38;;
68074;SDS011;54864;52.002;5.468;2023-06-22T03:01:31;17.45;;;11.80;;
68074;SDS011;54864;52.002;5.468;2023-06-22T03:02:39;14.68;;;11.73;;
68074;SDS011;54864;52.002;5.468;2023-06-22T03:03:41;14.55;;;11.93;;
68074;SDS011;54864;52.002;5.468;2023-06-22T03:04:42;14.25;;;11.40;;
68074;SDS011;54864;52.002;5.468;2023-06-22T03:05:49;15.05;;;12.05;;
68074;SDS011;54864;52.002;5.468;2023-06-22T03:06:53;15.80;;;12.65;;
68074;SDS011;54864;52.002;5.468;2023-06-22T03:07:54;16.13;;;12.27;;
68074;SDS011;54864;52.002;5.468;2023-06-22T03:08:57;14.63;;;11.73;;
68074;SDS011;54864;52.002;5.468;2023-06-22T03:10:00;14.00;;;12.35;;
68074;SDS011;54864;52.002;5.468;2023-06-22T03:11:01;13.35;;;11.40;;
68074;SDS011;54864;52.002;5.468;2023-06-22T03:12:03;13.15;;;11.25;;
68074;SDS011;54864;52.002;5.468;2023-06-22T03:13:04;16.33;;;11.75;;
68074;SDS011;54864;52.002;5.468;2023-06-22T03:14:06;13.33;;;11.80;;
68074;SDS011;54864;52.002;5.468;2023-06-22T03:15:07;13.43;;;11.85;;
68074;SDS011;54864;52.002;5.468;2023-06-22T03:16:10;17.67;;;12.60;;
68074;SDS011;54864;52.002;5.468;2023-06-22T03:17:11;14.52;;;12.45;;
68074;SDS011;54864;52.002;5.468;2023-06-22T03:18:14;16.08;;;13.25;;
68074;SDS011;54864;52.002;5.468;2023-06-22T03:19:15;14.90;;;12.43;;
68074;SDS011;54864;52.002;5.468;2023-06-22T03:20:17;17.20;;;13.10;;
68074;SDS011;54864;52.002;5.468;2023-06-22T03:21:19;14.23;;;12.20;;
68074;SDS011;54864;52.002;5.468;2023-06-22T03:22:24;16.17;;;12.63;;
68074;SDS011;54864;52.002;5.468;2023-06-22T03:23:24;14.87;;;12.47;;
68074;SDS011;54864;52.002;5.468;2023-06-22T03:24:26;17.63;;;12.55;;
68074;SDS011;54864;52.002;5.468;2023-06-22T03:25:29;14.93;;;12.02;;
68074;SDS011;54864;52.002;5.468;2023-06-22T03:26:31;16.35;;;13.20;;
68074;SDS011;54864;52.002;5.468;2023-06-22T03:27:32;16.52;;;12.43;;
68074;SDS011;54864;52.002;5.468;2023-06-22T03:28:33;14.43;;;12.35;;
68074;SDS011;54864;52.002;5.468;2023-06-22T03:29:34;16.63;;;13.10;;
68074;SDS011;54864;52.002;5.468;2023-06-22T03:30:36;14.32;;;12.55;;
68074;SDS011;54864;52.002;5.468;2023-06-22T03:31:37;15.77;;;12.93;;
68074;SDS011;54864;52.002;5.468;2023-06-22T03:32:39;18.93;;;12.77;;
68074;SDS011;54864;52.002;5.468;2023-06-22T03:33:41;14.77;;;12.63;;
68074;SDS011;54864;52.002;5.468;2023-06-22T03:34:49;16.80;;;13.35;;
68074;SDS011;54864;52.002;5.468;2023-06-22T03:35:50;16.15;;;13.90;;
68074;SDS011;54864;52.002;5.468;2023-06-22T03:36:52;14.80;;;12.40;;
68074;SDS011;54864;52.002;5.468;2023-06-22T03:37:53;16.92;;;13.25;;
68074;SDS011;54864;52.002;5.468;2023-06-22T03:38:55;15.87;;;13.93;;
68074;SDS011;54864;52.002;5.468;2023-06-22T03:39:56;15.55;;;12.60;;
68074;SDS011;54864;52.002;5.468;2023-06-22T03:40:57;16.30;;;13.67;;
68074;SDS011;54864;52.002;5.468;2023-06-22T03:41:59;15.60;;;13.10;;
68074;SDS011;54864;52.002;5.468;2023-06-22T03:43:00;17.67;;;13.45;;
68074;SDS011;54864;52.002;5.468;2023-06-22T03:44:02;17.20;;;14.00;;
68074;SDS011;54864;52.002;5.468;2023-06-22T03:45:03;16.88;;;12.60;;
68074;SDS011;54864;52.002;5.468;2023-06-22T03:46:06;16.08;;;13.10;;
68074;SDS011;54864;52.002;5.468;2023-06-22T03:47:06;17.83;;;13.63;;
68074;SDS011;54864;52.002;5.468;2023-06-22T03:48:09;17.48;;;13.10;;
68074;SDS011;54864;52.002;5.468;2023-06-22T03:49:11;17.35;;;13.13;;
68074;SDS011;54864;52.002;5.468;2023-06-22T03:50:13;20.45;;;13.68;;
68074;SDS011;54864;52.002;5.468;2023-06-22T03:51:14;19.70;;;13.55;;
68074;SDS011;54864;52.002;5.468;2023-06-22T03:52:16;18.38;;;13.70;;
68074;SDS011;54864;52.002;5.468;2023-06-22T03:53:17;18.25;;;13.25;;
68074;SDS011;54864;52.002;5.468;2023-06-22T03:54:19;20.17;;;12.68;;
68074;SDS011;54864;52.002;5.468;2023-06-22T03:55:20;17.23;;;13.30;;
68074;SDS011;54864;52.002;5.468;2023-06-22T03:56:22;18.65;;;13.95;;
68074;SDS011;54864;52.002;5.468;2023-06-22T03:57:23;19.75;;;13.27;;
68074;SDS011;54864;52.002;5.468;2023-06-22T03:58:24;17.48;;;13.20;;
68074;SDS011;54864;52.002;5.468;2023-06-22T03:59:26;25.03;;;13.00;;
68074;SDS011;54864;52.002;5.468;2023-06-22T04:00:28;23.85;;;13.90;;
68074;SDS011;54864;52.002;5.468;2023-06-22T04:01:28;18.17;;;13.63;;
68074;SDS011;54864;52.002;5.468;2023-06-22T04:02:30;19.30;;;14.35;;
68074;SDS011;54864;52.002;5.468;2023-06-22T04:03:31;17.08;;;13.93;;
68074;SDS011;54864;52.002;5.468;2023-06-22T04:04:37;19.67;;;14.50;;
68074;SDS011;54864;52.002;5.468;2023-06-22T04:05:39;22.05;;;15.25;;
68074;SDS011;54864;52.002;5.468;2023-06-22T04:06:41;19.52;;;15.25;;
68074;SDS011;54864;52.002;5.468;2023-06-22T04:07:42;19.30;;;14.90;;
68074;SDS011;54864;52.002;5.468;2023-06-22T04:08:49;20.10;;;14.48;;
68074;SDS011;54864;52.002;5.468;2023-06-22T04:09:51;19.75;;;14.43;;
68074;SDS011;54864;52.002;5.468;2023-06-22T04:10:52;17.75;;;14.38;;
68074;SDS011;54864;52.002;5.468;2023-06-22T04:11:53;23.10;;;14.85;;
68074;SDS011;54864;52.002;5.468;2023-06-22T04:12:55;23.65;;;15.35;;
68074;SDS011;54864;52.002;5.468;2023-06-22T04:13:56;21.70;;;15.33;;
68074;SDS011;54864;52.002;5.468;2023-06-22T04:14:58;24.65;;;14.77;;
68074;SDS011;54864;52.002;5.468;2023-06-22T04:15:59;26.65;;;14.40;;
68074;SDS011;54864;52.002;5.468;2023-06-22T04:17:02;19.70;;;14.82;;
68074;SDS011;54864;52.002;5.468;2023-06-22T04:18:03;23.13;;;15.07;;
68074;SDS011;54864;52.002;5.468;2023-06-22T04:19:05;21.38;;;15.70;;
68074;SDS011;54864;52.002;5.468;2023-06-22T04:20:07;24.33;;;15.73;;
68074;SDS011;54864;52.002;5.468;2023-06-22T04:21:10;26.00;;;15.77;;
68074;SDS011;54864;52.002;5.468;2023-06-22T04:22:11;26.40;;;15.18;;
68074;SDS011;54864;52.002;5.468;2023-06-22T04:23:13;23.17;;;15.65;;
68074;SDS011;54864;52.002;5.468;2023-06-22T04:24:15;20.43;;;15.20;;
68074;SDS011;54864;52.002;5.468;2023-06-22T04:25:16;20.33;;;14.80;;
68074;SDS011;54864;52.002;5.468;2023-06-22T04:26:18;21.42;;;15.55;;
68074;SDS011;54864;52.002;5.468;2023-06-22T04:27:21;23.35;;;16.40;;
68074;SDS011;54864;52.002;5.468;2023-06-22T04:28:23;20.85;;;14.88;;
68074;SDS011;54864;52.002;5.468;2023-06-22T04:29:25;21.17;;;15.15;;
68074;SDS011;54864;52.002;5.468;2023-06-22T04:30:28;19.17;;;15.50;;
68074;SDS011;54864;52.002;5.468;2023-06-22T04:31:31;17.38;;;14.82;;
68074;SDS011;54864;52.002;5.468;2023-06-22T04:32:36;21.35;;;15.40;;
68074;SDS011;54864;52.002;5.468;2023-06-22T04:33:39;24.27;;;15.65;;
68074;SDS011;54864;52.002;5.468;2023-06-22T04:34:40;22.83;;;15.68;;
68074;SDS011;54864;52.002;5.468;2023-06-22T04:35:45;22.17;;;16.27;;
68074;SDS011;54864;52.002;5.468;2023-06-22T04:36:49;28.50;;;16.85;;
68074;SDS011;54864;52.002;5.468;2023-06-22T04:37:50;22.00;;;17.05;;
68074;SDS011;54864;52.002;5.468;2023-06-22T04:38:54;31.10;;;16.92;;
68074;SDS011;54864;52.002;5.468;2023-06-22T04:39:57;24.20;;;16.42;;
68074;SDS011;54864;52.002;5.468;2023-06-22T04:40:58;22.45;;;17.30;;
68074;SDS011;54864;52.002;5.468;2023-06-22T04:42:01;25.13;;;17.75;;
68074;SDS011;54864;52.002;5.468;2023-06-22T04:43:02;26.95;;;19.17;;
68074;SDS011;54864;52.002;5.468;2023-06-22T04:44:06;31.60;;;18.17;;
68074;SDS011;54864;52.002;5.468;2023-06-22T04:45:07;24.25;;;18.55;;
68074;SDS011;54864;52.002;5.468;2023-06-22T04:46:10;22.75;;;18.45;;
68074;SDS011;54864;52.002;5.468;2023-06-22T04:47:11;25.80;;;19.43;;
68074;SDS011;54864;52.002;5.468;2023-06-22T04:48:13;24.92;;;19.55;;
68074;SDS011;54864;52.002;5.468;2023-06-22T04:49:16;26.10;;;20.20;;
68074;SDS011;54864;52.002;5.468;2023-06-22T04:50:18;25.52;;;18.98;;
68074;SDS011;54864;52.002;5.468;2023-06-22T04:51:22;29.80;;;20.63;;
68074;SDS011;54864;52.002;5.468;2023-06-22T04:52:31;24.65;;;19.10;;
68074;SDS011;54864;52.002;5.468;2023-06-22T04:53:32;26.33;;;20.92;;
68074;SDS011;54864;52.002;5.468;2023-06-22T04:54:33;25.15;;;19.92;;
68074;SDS011;54864;52.002;5.468;2023-06-22T04:55:36;24.83;;;19.63;;
68074;SDS011;54864;52.002;5.468;2023-06-22T04:56:41;24.80;;;20.30;;
68074;SDS011;54864;52.002;5.468;2023-06-22T04:57:49;26.80;;;20.80;;
68074;SDS011;54864;52.002;5.468;2023-06-22T04:58:51;27.42;;;20.83;;
68074;SDS011;54864;52.002;5.468;2023-06-22T04:59:52;29.25;;;21.00;;
68074;SDS011;54864;52.002;5.468;2023-06-22T05:00:54;26.02;;;20.15;;
68074;SDS011;54864;52.002;5.468;2023-06-22T05:01:57;23.35;;;19.42;;
68074;SDS011;54864;52.002;5.468;2023-06-22T05:03:00;26.95;;;20.92;;
68074;SDS011;54864;52.002;5.468;2023-06-22T05:04:03;29.38;;;21.63;;
68074;SDS011;54864;52.002;5.468;2023-06-22T05:05:07;28.60;;;21.92;;
68074;SDS011;54864;52.002;5.468;2023-06-22T05:06:08;30.35;;;23.80;;
68074;SDS011;54864;52.002;5.468;2023-06-22T05:07:11;32.42;;;23.52;;
68074;SDS011;54864;52.002;5.468;2023-06-22T05:08:12;31.90;;;23.10;;
68074;SDS011;54864;52.002;5.468;2023-06-22T05:09:14;31.48;;;23.73;;
68074;SDS011;54864;52.002;5.468;2023-06-22T05:10:15;33.30;;;24.33;;
68074;SDS011;54864;52.002;5.468;2023-06-22T05:11:17;28.88;;;24.42;;
68074;SDS011;54864;52.002;5.468;2023-06-22T05:12:27;31.00;;;24.38;;
68074;SDS011;54864;52.002;5.468;2023-06-22T05:13:30;32.38;;;23.88;;
68074;SDS011;54864;52.002;5.468;2023-06-22T05:14:31;32.47;;;24.02;;
68074;SDS011;54864;52.002;5.468;2023-06-22T05:15:33;33.28;;;25.05;;
68074;SDS011;54864;52.002;5.468;2023-06-22T05:16:37;31.23;;;24.98;;
68074;SDS011;54864;52.002;5.468;2023-06-22T05:17:39;32.53;;;25.70;;
68074;SDS011;54864;52.002;5.468;2023-06-22T05:18:43;31.65;;;24.10;;
68074;SDS011;54864;52.002;5.468;2023-06-22T05:19:43;33.80;;;24.90;;
68074;SDS011;54864;52.002;5.468;2023-06-22T05:20:51;28.77;;;24.75;;
68074;SDS011;54864;52.002;5.468;2023-06-22T05:21:52;31.95;;;24.10;;
68074;SDS011;54864;52.002;5.468;2023-06-22T05:22:55;33.28;;;24.73;;
68074;SDS011;54864;52.002;5.468;2023-06-22T05:23:56;30.40;;;24.13;;
68074;SDS011;54864;52.002;5.468;2023-06-22T05:25:00;48.55;;;25.83;;
68074;SDS011;54864;52.002;5.468;2023-06-22T05:26:01;41.17;;;25.43;;
68074;SDS011;54864;52.002;5.468;2023-06-22T05:27:03;30.52;;;25.77;;
68074;SDS011;54864;52.002;5.468;2023-06-22T05:28:04;33.65;;;24.98;;
68074;SDS011;54864;52.002;5.468;2023-06-22T05:29:10;31.83;;;24.85;;
68074;SDS011;54864;52.002;5.468;2023-06-22T05:30:11;32.37;;;25.60;;
68074;SDS011;54864;52.002;5.468;2023-06-22T05:31:13;33.88;;;25.40;;
68074;SDS011;54864;52.002;5.468;2023-06-22T05:32:14;36.10;;;25.80;;
68074;SDS011;54864;52.002;5.468;2023-06-22T05:33:16;29.73;;;24.52;;
68074;SDS011;54864;52.002;5.468;2023-06-22T05:34:17;32.08;;;24.60;;
68074;SDS011;54864;52.002;5.468;2023-06-22T05:35:19;33.05;;;25.90;;
68074;SDS011;54864;52.002;5.468;2023-06-22T05:36:19;30.07;;;23.87;;
68074;SDS011;54864;52.002;5.468;2023-06-22T05:37:25;32.53;;;25.10;;
68074;SDS011;54864;52.002;5.468;2023-06-22T05:38:27;30.45;;;24.55;;
68074;SDS011;54864;52.002;5.468;2023-06-22T05:39:29;30.70;;;24.55;;
68074;SDS011;54864;52.002;5.468;2023-06-22T05:40:30;31.77;;;25.70;;
68074;SDS011;54864;52.002;5.468;2023-06-22T05:41:32;36.55;;;25.50;;
68074;SDS011;54864;52.002;5.468;2023-06-22T05:42:32;33.78;;;26.13;;
68074;SDS011;54864;52.002;5.468;2023-06-22T05:43:34;35.38;;;26.13;;
68074;SDS011;54864;52.002;5.468;2023-06-22T05:44:35;33.10;;;25.57;;
68074;SDS011;54864;52.002;5.468;2023-06-22T05:45:37;36.33;;;26.48;;
68074;SDS011;54864;52.002;5.468;2023-06-22T05:46:40;33.35;;;26.83;;
68074;SDS011;54864;52.002;5.468;2023-06-22T05:47:53;35.88;;;25.70;;
68074;SDS011;54864;52.002;5.468;2023-06-22T05:48:54;32.92;;;24.85;;
68074;SDS011;54864;52.002;5.468;2023-06-22T05:49:56;33.20;;;26.13;;
68074;SDS011;54864;52.002;5.468;2023-06-22T05:50:56;34.08;;;26.65;;
68074;SDS011;54864;52.002;5.468;2023-06-22T05:51:59;33.67;;;26.20;;
68074;SDS011;54864;52.002;5.468;2023-06-22T05:52:59;32.97;;;25.00;;
68074;SDS011;54864;52.002;5.468;2023-06-22T05:54:03;31.67;;;25.35;;
68074;SDS011;54864;52.002;5.468;2023-06-22T05:55:04;30.45;;;25.25;;
68074;SDS011;54864;52.002;5.468;2023-06-22T05:56:06;31.00;;;25.15;;
68074;SDS011;54864;52.002;5.468;2023-06-22T05:57:07;30.43;;;25.13;;
68074;SDS011;54864;52.002;5.468;2023-06-22T05:58:09;34.30;;;25.40;;
68074;SDS011;54864;52.002;5.468;2023-06-22T05:59:10;36.05;;;26.55;;
68074;SDS011;54864;52.002;5.468;2023-06-22T06:00:12;31.90;;;25.35;;
68074;SDS011;54864;52.002;5.468;2023-06-22T06:01:15;39.87;;;26.60;;
68074;SDS011;54864;52.002;5.468;2023-06-22T06:02:17;35.05;;;26.25;;
68074;SDS011;54864;52.002;5.468;2023-06-22T06:03:17;32.08;;;25.52;;
68074;SDS011;54864;52.002;5.468;2023-06-22T06:04:19;32.03;;;25.02;;
68074;SDS011;54864;52.002;5.468;2023-06-22T06:05:20;32.93;;;25.70;;
68074;SDS011;54864;52.002;5.468;2023-06-22T06:06:24;32.28;;;25.63;;
68074;SDS011;54864;52.002;5.468;2023-06-22T06:07:28;32.05;;;26.92;;
68074;SDS011;54864;52.002;5.468;2023-06-22T06:08:30;35.22;;;25.83;;
68074;SDS011;54864;52.002;5.468;2023-06-22T06:09:34;29.73;;;25.07;;